sensor_id;sensor_type;location;lat;lon;timestamp;P1;durP1;ratioP1;P2;durP2;ratioP2
10116;SDS011;5098;48.792;9.012;2022-09-09T00:01:02;3.73;;;1.60;;
10116;SDS011;5098;48.792;9.012;2022-09-09T00:03:35;3.53;;;1.70;;
10116;SDS011;5098;48.792;9.012;2022-09-09T00:08:51;1.73;;;1.17;;
10116;SDS011;5098;48.792;9.012;2022-09-09T00:11:24;4.93;;;1.90;;
10116;SDS011;5098;48.792;9.012;2022-09-09T00:13:52;5.23;;;1.30;;
10116;SDS011;5098;48.792;9.012;2022-09-09T00:16:24;2.00;;;1.37;;
10116;SDS011;5098;48.792;9.012;2022-09-09T00:21:17;4.20;;;1.20;;
10116;SDS011;5098;48.792;9.012;2022-09-09T00:28:46;2.40;;;1.70;;
10116;SDS011;5098;48.792;9.012;2022-09-09T00:31:20;3.00;;;1.30;;
10116;SDS011;5098;48.792;9.012;2022-09-09T00:33:47;5.23;;;1.27;;
10116;SDS011;5098;48.792;9.012;2022-09-09T00:36:16;2.07;;;1.20;;
10116;SDS011;5098;48.792;9.012;2022-09-09T00:38:51;3.60;;;1.83;;
10116;SDS011;5098;48.792;9.012;2022-09-09T00:41:22;2.07;;;1.73;;
10116;SDS011;5098;48.792;9.012;2022-09-09T00:44:28;2.83;;;1.57;;
10116;SDS011;5098;48.792;9.012;2022-09-09T00:52:13;2.20;;;1.37;;
10116;SDS011;5098;48.792;9.012;2022-09-09T00:59:48;2.70;;;1.60;;
10116;SDS011;5098;48.792;9.012;2022-09-09T01:02:26;3.20;;;1.60;;
10116;SDS011;5098;48.792;9.012;2022-09-09T01:04:57;2.90;;;1.40;;
10116;SDS011;5098;48.792;9.012;2022-09-09T01:07:26;2.70;;;1.30;;
10116;SDS011;5098;48.792;9.012;2022-09-09T01:09:59;3.03;;;1.50;;
10116;SDS011;5098;48.792;9.012;2022-09-09T01:12:29;5.13;;;1.47;;
10116;SDS011;5098;48.792;9.012;2022-09-09T01:15:02;3.57;;;1.60;;
10116;SDS011;5098;48.792;9.012;2022-09-09T01:17:34;3.90;;;1.43;;
10116;SDS011;5098;48.792;9.012;2022-09-09T01:22:36;2.30;;;1.27;;
10116;SDS011;5098;48.792;9.012;2022-09-09T01:25:20;5.23;;;1.60;;
10116;SDS011;5098;48.792;9.012;2022-09-09T01:27:47;5.13;;;1.40;;
10116;SDS011;5098;48.792;9.012;2022-09-09T01:30:14;2.00;;;1.50;;
10116;SDS011;5098;48.792;9.012;2022-09-09T01:35:09;2.77;;;1.60;;
10116;SDS011;5098;48.792;9.012;2022-09-09T01:37:36;3.70;;;1.80;;
10116;SDS011;5098;48.792;9.012;2022-09-09T01:40:02;4.70;;;1.60;;
10116;SDS011;5098;48.792;9.012;2022-09-09T01:42:28;3.20;;;1.20;;
10116;SDS011;5098;48.792;9.012;2022-09-09T01:44:55;4.37;;;1.60;;
10116;SDS011;5098;48.792;9.012;2022-09-09T01:47:21;4.13;;;1.83;;
10116;SDS011;5098;48.792;9.012;2022-09-09T01:49:47;1.70;;;1.40;;
10116;SDS011;5098;48.792;9.012;2022-09-09T01:52:13;2.17;;;1.50;;
10116;SDS011;5098;48.792;9.012;2022-09-09T01:54:39;7.43;;;1.40;;
10116;SDS011;5098;48.792;9.012;2022-09-09T01:57:19;5.10;;;1.43;;
10116;SDS011;5098;48.792;9.012;2022-09-09T02:05:17;1.87;;;1.43;;
10116;SDS011;5098;48.792;9.012;2022-09-09T02:07:47;2.93;;;1.23;;
10116;SDS011;5098;48.792;9.012;2022-09-09T02:10:20;3.07;;;1.30;;
10116;SDS011;5098;48.792;9.012;2022-09-09T02:12:49;4.60;;;1.50;;
10116;SDS011;5098;48.792;9.012;2022-09-09T02:15:24;4.63;;;1.60;;
10116;SDS011;5098;48.792;9.012;2022-09-09T02:17:51;1.73;;;1.00;;
10116;SDS011;5098;48.792;9.012;2022-09-09T02:20:18;2.90;;;0.90;;
10116;SDS011;5098;48.792;9.012;2022-09-09T02:22:45;1.77;;;0.73;;
10116;SDS011;5098;48.792;9.012;2022-09-09T02:25:14;1.60;;;1.10;;
10116;SDS011;5098;48.792;9.012;2022-09-09T02:27:41;2.40;;;1.00;;
10116;SDS011;5098;48.792;9.012;2022-09-09T02:30:09;2.27;;;1.10;;
10116;SDS011;5098;48.792;9.012;2022-09-09T02:32:36;3.33;;;0.80;;
10116;SDS011;5098;48.792;9.012;2022-09-09T02:35:08;1.93;;;1.00;;
10116;SDS011;5098;48.792;9.012;2022-09-09T02:37:36;2.43;;;1.00;;
10116;SDS011;5098;48.792;9.012;2022-09-09T02:40:03;3.43;;;1.00;;
10116;SDS011;5098;48.792;9.012;2022-09-09T02:42:30;1.97;;;0.97;;
10116;SDS011;5098;48.792;9.012;2022-09-09T02:44:56;1.60;;;1.00;;
10116;SDS011;5098;48.792;9.012;2022-09-09T02:47:25;5.00;;;1.20;;
10116;SDS011;5098;48.792;9.012;2022-09-09T02:52:40;2.63;;;0.80;;
10116;SDS011;5098;48.792;9.012;2022-09-09T02:55:11;1.57;;;1.10;;
10116;SDS011;5098;48.792;9.012;2022-09-09T02:57:39;2.50;;;1.03;;
10116;SDS011;5098;48.792;9.012;2022-09-09T03:00:06;3.80;;;1.10;;
10116;SDS011;5098;48.792;9.012;2022-09-09T03:02:32;2.97;;;1.00;;
10116;SDS011;5098;48.792;9.012;2022-09-09T03:04:58;1.87;;;1.20;;
10116;SDS011;5098;48.792;9.012;2022-09-09T03:07:24;2.17;;;1.10;;
10116;SDS011;5098;48.792;9.012;2022-09-09T03:09:52;1.50;;;1.00;;
10116;SDS011;5098;48.792;9.012;2022-09-09T03:12:19;3.13;;;1.20;;
10116;SDS011;5098;48.792;9.012;2022-09-09T03:14:45;5.43;;;1.03;;
10116;SDS011;5098;48.792;9.012;2022-09-09T03:17:11;3.07;;;0.93;;
10116;SDS011;5098;48.792;9.012;2022-09-09T03:19:38;1.90;;;1.00;;
10116;SDS011;5098;48.792;9.012;2022-09-09T03:22:05;1.07;;;0.87;;
10116;SDS011;5098;48.792;9.012;2022-09-09T03:24:31;1.43;;;0.80;;
10116;SDS011;5098;48.792;9.012;2022-09-09T03:26:57;2.97;;;0.90;;
10116;SDS011;5098;48.792;9.012;2022-09-09T03:29:23;2.17;;;1.10;;
10116;SDS011;5098;48.792;9.012;2022-09-09T03:31:49;4.03;;;1.23;;
10116;SDS011;5098;48.792;9.012;2022-09-09T03:34:16;2.73;;;1.00;;
10116;SDS011;5098;48.792;9.012;2022-09-09T03:36:42;3.83;;;1.10;;
10116;SDS011;5098;48.792;9.012;2022-09-09T03:39:08;2.50;;;0.90;;
10116;SDS011;5098;48.792;9.012;2022-09-09T03:41:34;2.80;;;1.20;;
10116;SDS011;5098;48.792;9.012;2022-09-09T03:44:02;2.20;;;1.30;;
10116;SDS011;5098;48.792;9.012;2022-09-09T03:46:28;2.50;;;1.00;;
10116;SDS011;5098;48.792;9.012;2022-09-09T03:48:54;1.37;;;0.80;;
10116;SDS011;5098;48.792;9.012;2022-09-09T03:51:20;1.23;;;1.03;;
10116;SDS011;5098;48.792;9.012;2022-09-09T03:53:47;3.80;;;0.80;;
10116;SDS011;5098;48.792;9.012;2022-09-09T03:56:13;3.53;;;0.90;;
10116;SDS011;5098;48.792;9.012;2022-09-09T03:58:40;1.97;;;0.93;;
10116;SDS011;5098;48.792;9.012;2022-09-09T04:01:07;2.40;;;0.87;;
10116;SDS011;5098;48.792;9.012;2022-09-09T04:03:33;1.30;;;1.00;;
10116;SDS011;5098;48.792;9.012;2022-09-09T04:06:00;1.30;;;0.90;;
10116;SDS011;5098;48.792;9.012;2022-09-09T04:08:28;1.50;;;1.30;;
10116;SDS011;5098;48.792;9.012;2022-09-09T04:10:56;1.37;;;1.00;;
10116;SDS011;5098;48.792;9.012;2022-09-09T04:13:23;1.57;;;0.90;;
10116;SDS011;5098;48.792;9.012;2022-09-09T04:15:59;1.57;;;1.10;;
10116;SDS011;5098;48.792;9.012;2022-09-09T04:18:25;2.03;;;1.07;;
10116;SDS011;5098;48.792;9.012;2022-09-09T04:20:53;2.43;;;1.00;;
10116;SDS011;5098;48.792;9.012;2022-09-09T04:23:20;3.43;;;1.23;;
10116;SDS011;5098;48.792;9.012;2022-09-09T04:25:47;8.20;;;1.50;;
10116;SDS011;5098;48.792;9.012;2022-09-09T04:28:14;2.80;;;1.37;;
10116;SDS011;5098;48.792;9.012;2022-09-09T04:30:40;1.90;;;1.17;;
10116;SDS011;5098;48.792;9.012;2022-09-09T04:33:06;2.40;;;1.40;;
10116;SDS011;5098;48.792;9.012;2022-09-09T04:35:33;2.20;;;1.10;;
10116;SDS011;5098;48.792;9.012;2022-09-09T04:37:59;4.40;;;1.50;;
10116;SDS011;5098;48.792;9.012;2022-09-09T04:40:25;1.30;;;1.20;;
10116;SDS011;5098;48.792;9.012;2022-09-09T04:42:51;6.90;;;1.77;;
10116;SDS011;5098;48.792;9.012;2022-09-09T04:45:17;3.47;;;1.50;;
10116;SDS011;5098;48.792;9.012;2022-09-09T04:47:43;4.20;;;1.07;;
10116;SDS011;5098;48.792;9.012;2022-09-09T04:50:09;2.70;;;1.20;;
10116;SDS011;5098;48.792;9.012;2022-09-09T04:52:36;2.63;;;1.23;;
10116;SDS011;5098;48.792;9.012;2022-09-09T04:55:03;3.17;;;1.60;;
10116;SDS011;5098;48.792;9.012;2022-09-09T04:57:29;1.60;;;1.17;;
10116;SDS011;5098;48.792;9.012;2022-09-09T04:59:57;3.93;;;1.60;;
10116;SDS011;5098;48.792;9.012;2022-09-09T05:02:23;4.50;;;1.43;;
10116;SDS011;5098;48.792;9.012;2022-09-09T05:04:49;3.00;;;1.43;;
10116;SDS011;5098;48.792;9.012;2022-09-09T05:07:15;2.73;;;1.33;;
10116;SDS011;5098;48.792;9.012;2022-09-09T05:09:41;1.67;;;1.33;;
10116;SDS011;5098;48.792;9.012;2022-09-09T05:12:08;4.20;;;1.67;;
10116;SDS011;5098;48.792;9.012;2022-09-09T05:14:34;3.57;;;1.43;;
10116;SDS011;5098;48.792;9.012;2022-09-09T05:17:02;2.10;;;1.10;;
10116;SDS011;5098;48.792;9.012;2022-09-09T05:19:28;2.93;;;1.50;;
10116;SDS011;5098;48.792;9.012;2022-09-09T05:21:56;1.87;;;1.27;;
10116;SDS011;5098;48.792;9.012;2022-09-09T05:24:22;3.17;;;1.70;;
10116;SDS011;5098;48.792;9.012;2022-09-09T05:26:48;4.70;;;1.50;;
10116;SDS011;5098;48.792;9.012;2022-09-09T05:29:14;3.57;;;1.57;;
10116;SDS011;5098;48.792;9.012;2022-09-09T05:31:44;1.63;;;1.17;;
10116;SDS011;5098;48.792;9.012;2022-09-09T05:34:13;2.90;;;1.60;;
10116;SDS011;5098;48.792;9.012;2022-09-09T05:36:40;2.90;;;1.37;;
10116;SDS011;5098;48.792;9.012;2022-09-09T05:39:06;3.63;;;1.80;;
10116;SDS011;5098;48.792;9.012;2022-09-09T05:41:32;2.10;;;1.10;;
10116;SDS011;5098;48.792;9.012;2022-09-09T05:43:58;1.50;;;1.10;;
10116;SDS011;5098;48.792;9.012;2022-09-09T05:46:26;6.20;;;1.40;;
10116;SDS011;5098;48.792;9.012;2022-09-09T05:48:52;3.87;;;1.80;;
10116;SDS011;5098;48.792;9.012;2022-09-09T05:51:22;6.10;;;1.43;;
10116;SDS011;5098;48.792;9.012;2022-09-09T05:53:49;3.87;;;2.17;;
10116;SDS011;5098;48.792;9.012;2022-09-09T05:56:21;2.93;;;1.37;;
10116;SDS011;5098;48.792;9.012;2022-09-09T05:58:49;2.40;;;1.03;;
10116;SDS011;5098;48.792;9.012;2022-09-09T06:01:16;3.93;;;1.30;;
10116;SDS011;5098;48.792;9.012;2022-09-09T06:03:43;3.47;;;1.50;;
10116;SDS011;5098;48.792;9.012;2022-09-09T06:06:14;2.73;;;1.43;;
10116;SDS011;5098;48.792;9.012;2022-09-09T06:08:41;4.23;;;1.13;;
10116;SDS011;5098;48.792;9.012;2022-09-09T06:11:12;4.20;;;1.60;;
10116;SDS011;5098;48.792;9.012;2022-09-09T06:13:39;2.40;;;1.23;;
10116;SDS011;5098;48.792;9.012;2022-09-09T06:16:15;3.23;;;1.67;;
10116;SDS011;5098;48.792;9.012;2022-09-09T06:18:42;3.70;;;1.90;;
10116;SDS011;5098;48.792;9.012;2022-09-09T06:21:15;4.07;;;1.57;;
10116;SDS011;5098;48.792;9.012;2022-09-09T06:23:41;1.93;;;1.10;;
10116;SDS011;5098;48.792;9.012;2022-09-09T06:28:35;3.90;;;1.20;;
10116;SDS011;5098;48.792;9.012;2022-09-09T06:31:02;3.13;;;1.47;;
10116;SDS011;5098;48.792;9.012;2022-09-09T06:33:34;2.10;;;1.20;;
10116;SDS011;5098;48.792;9.012;2022-09-09T06:36:00;2.50;;;1.30;;
10116;SDS011;5098;48.792;9.012;2022-09-09T06:38:27;2.97;;;1.37;;
10116;SDS011;5098;48.792;9.012;2022-09-09T06:40:53;2.50;;;1.23;;
10116;SDS011;5098;48.792;9.012;2022-09-09T06:43:23;6.63;;;1.90;;
10116;SDS011;5098;48.792;9.012;2022-09-09T06:46:31;2.20;;;1.93;;
10116;SDS011;5098;48.792;9.012;2022-09-09T06:48:39;3.30;;;1.70;;
10116;SDS011;5098;48.792;9.012;2022-09-09T06:51:13;3.50;;;1.90;;
10116;SDS011;5098;48.792;9.012;2022-09-09T06:53:41;10.77;;;1.70;;
10116;SDS011;5098;48.792;9.012;2022-09-09T06:58:40;3.60;;;1.63;;
10116;SDS011;5098;48.792;9.012;2022-09-09T07:01:09;1.90;;;1.60;;
10116;SDS011;5098;48.792;9.012;2022-09-09T07:03:37;4.43;;;1.80;;
10116;SDS011;5098;48.792;9.012;2022-09-09T07:06:04;4.13;;;1.57;;
10116;SDS011;5098;48.792;9.012;2022-09-09T07:08:30;3.10;;;1.40;;
10116;SDS011;5098;48.792;9.012;2022-09-09T07:11:03;3.37;;;1.70;;
10116;SDS011;5098;48.792;9.012;2022-09-09T07:13:30;6.10;;;1.43;;
10116;SDS011;5098;48.792;9.012;2022-09-09T07:16:03;3.00;;;1.37;;
10116;SDS011;5098;48.792;9.012;2022-09-09T07:18:29;5.37;;;1.70;;
10116;SDS011;5098;48.792;9.012;2022-09-09T07:20:56;3.50;;;1.77;;
10116;SDS011;5098;48.792;9.012;2022-09-09T07:23:22;2.50;;;1.27;;
10116;SDS011;5098;48.792;9.012;2022-09-09T07:25:49;3.20;;;1.60;;
10116;SDS011;5098;48.792;9.012;2022-09-09T07:28:15;3.83;;;1.40;;
10116;SDS011;5098;48.792;9.012;2022-09-09T07:30:42;2.30;;;1.47;;
10116;SDS011;5098;48.792;9.012;2022-09-09T07:33:08;6.43;;;1.73;;
10116;SDS011;5098;48.792;9.012;2022-09-09T07:35:35;6.53;;;2.23;;
10116;SDS011;5098;48.792;9.012;2022-09-09T07:38:02;4.97;;;1.40;;
10116;SDS011;5098;48.792;9.012;2022-09-09T07:40:31;3.07;;;1.73;;
10116;SDS011;5098;48.792;9.012;2022-09-09T07:42:57;2.87;;;1.33;;
10116;SDS011;5098;48.792;9.012;2022-09-09T07:45:24;3.00;;;1.33;;
10116;SDS011;5098;48.792;9.012;2022-09-09T07:47:52;2.60;;;1.37;;
10116;SDS011;5098;48.792;9.012;2022-09-09T07:50:18;1.40;;;1.10;;
10116;SDS011;5098;48.792;9.012;2022-09-09T07:52:44;3.20;;;1.80;;
10116;SDS011;5098;48.792;9.012;2022-09-09T07:55:11;3.30;;;1.80;;
10116;SDS011;5098;48.792;9.012;2022-09-09T07:57:37;2.13;;;1.30;;
10116;SDS011;5098;48.792;9.012;2022-09-09T08:00:03;4.40;;;1.77;;
10116;SDS011;5098;48.792;9.012;2022-09-09T08:02:29;2.87;;;1.20;;
10116;SDS011;5098;48.792;9.012;2022-09-09T08:04:56;1.60;;;1.40;;
10116;SDS011;5098;48.792;9.012;2022-09-09T08:07:22;3.50;;;1.67;;
10116;SDS011;5098;48.792;9.012;2022-09-09T08:09:48;2.67;;;1.10;;
10116;SDS011;5098;48.792;9.012;2022-09-09T08:12:14;2.73;;;1.30;;
10116;SDS011;5098;48.792;9.012;2022-09-09T08:14:40;2.50;;;1.03;;
10116;SDS011;5098;48.792;9.012;2022-09-09T08:17:06;2.37;;;1.43;;
10116;SDS011;5098;48.792;9.012;2022-09-09T08:19:32;7.20;;;1.30;;
10116;SDS011;5098;48.792;9.012;2022-09-09T08:22:00;2.97;;;1.10;;
10116;SDS011;5098;48.792;9.012;2022-09-09T08:24:27;2.33;;;1.17;;
10116;SDS011;5098;48.792;9.012;2022-09-09T08:26:54;3.00;;;1.47;;
10116;SDS011;5098;48.792;9.012;2022-09-09T08:29:21;3.27;;;1.80;;
10116;SDS011;5098;48.792;9.012;2022-09-09T08:31:49;2.93;;;1.50;;
10116;SDS011;5098;48.792;9.012;2022-09-09T08:34:16;2.47;;;1.30;;
10116;SDS011;5098;48.792;9.012;2022-09-09T08:36:44;3.30;;;1.30;;
10116;SDS011;5098;48.792;9.012;2022-09-09T08:39:12;3.07;;;1.07;;
10116;SDS011;5098;48.792;9.012;2022-09-09T08:51:51;7.40;;;1.20;;
10116;SDS011;5098;48.792;9.012;2022-09-09T08:54:20;2.23;;;0.97;;
10116;SDS011;5098;48.792;9.012;2022-09-09T08:56:46;1.63;;;1.10;;
10116;SDS011;5098;48.792;9.012;2022-09-09T08:59:13;3.70;;;1.60;;
10116;SDS011;5098;48.792;9.012;2022-09-09T09:04:41;2.87;;;1.33;;
10116;SDS011;5098;48.792;9.012;2022-09-09T09:12:07;5.07;;;1.30;;
10116;SDS011;5098;48.792;9.012;2022-09-09T09:14:34;3.83;;;1.00;;
10116;SDS011;5098;48.792;9.012;2022-09-09T09:17:05;3.37;;;1.10;;
10116;SDS011;5098;48.792;9.012;2022-09-09T09:19:33;3.40;;;1.60;;
10116;SDS011;5098;48.792;9.012;2022-09-09T09:29:59;4.33;;;1.30;;
10116;SDS011;5098;48.792;9.012;2022-09-09T09:32:27;3.43;;;1.57;;
10116;SDS011;5098;48.792;9.012;2022-09-09T09:34:57;3.83;;;1.10;;
10116;SDS011;5098;48.792;9.012;2022-09-09T09:37:30;2.00;;;1.10;;
10116;SDS011;5098;48.792;9.012;2022-09-09T09:40:07;2.47;;;1.20;;
10116;SDS011;5098;48.792;9.012;2022-09-09T09:42:34;2.33;;;1.00;;
10116;SDS011;5098;48.792;9.012;2022-09-09T09:47:45;3.67;;;0.90;;
10116;SDS011;5098;48.792;9.012;2022-09-09T09:50:19;2.30;;;0.90;;
10116;SDS011;5098;48.792;9.012;2022-09-09T09:52:53;2.40;;;0.97;;
10116;SDS011;5098;48.792;9.012;2022-09-09T09:55:20;3.70;;;1.10;;
10116;SDS011;5098;48.792;9.012;2022-09-09T09:57:49;3.43;;;1.50;;
10116;SDS011;5098;48.792;9.012;2022-09-09T10:00:19;4.93;;;1.20;;
10116;SDS011;5098;48.792;9.012;2022-09-09T10:02:45;2.27;;;1.03;;
10116;SDS011;5098;48.792;9.012;2022-09-09T10:05:16;2.60;;;1.03;;
10116;SDS011;5098;48.792;9.012;2022-09-09T10:07:43;3.47;;;1.17;;
10116;SDS011;5098;48.792;9.012;2022-09-09T10:10:20;1.23;;;0.90;;
10116;SDS011;5098;48.792;9.012;2022-09-09T10:15:37;1.77;;;1.00;;
10116;SDS011;5098;48.792;9.012;2022-09-09T10:21:32;3.93;;;1.20;;
10116;SDS011;5098;48.792;9.012;2022-09-09T10:26:35;2.63;;;1.13;;
10116;SDS011;5098;48.792;9.012;2022-09-09T10:31:56;2.63;;;1.50;;
10116;SDS011;5098;48.792;9.012;2022-09-09T10:37:13;2.13;;;1.33;;
10116;SDS011;5098;48.792;9.012;2022-09-09T10:39:48;1.87;;;1.27;;
10116;SDS011;5098;48.792;9.012;2022-09-09T10:42:18;3.93;;;1.10;;
10116;SDS011;5098;48.792;9.012;2022-09-09T10:44:53;2.47;;;1.40;;
10116;SDS011;5098;48.792;9.012;2022-09-09T10:47:29;4.80;;;1.27;;
10116;SDS011;5098;48.792;9.012;2022-09-09T10:50:10;4.00;;;1.73;;
10116;SDS011;5098;48.792;9.012;2022-09-09T10:52:55;5.13;;;2.33;;
10116;SDS011;5098;48.792;9.012;2022-09-09T10:55:24;6.27;;;2.57;;
10116;SDS011;5098;48.792;9.012;2022-09-09T10:57:52;7.10;;;1.73;;
10116;SDS011;5098;48.792;9.012;2022-09-09T11:00:23;2.67;;;1.20;;
10116;SDS011;5098;48.792;9.012;2022-09-09T11:02:53;2.47;;;1.30;;
10116;SDS011;5098;48.792;9.012;2022-09-09T11:05:22;1.77;;;0.80;;
10116;SDS011;5098;48.792;9.012;2022-09-09T11:10:40;2.60;;;1.20;;
10116;SDS011;5098;48.792;9.012;2022-09-09T11:13:11;3.77;;;1.30;;
10116;SDS011;5098;48.792;9.012;2022-09-09T11:15:49;3.70;;;1.40;;
10116;SDS011;5098;48.792;9.012;2022-09-09T11:18:19;1.57;;;0.87;;
10116;SDS011;5098;48.792;9.012;2022-09-09T11:20:50;2.23;;;1.07;;
10116;SDS011;5098;48.792;9.012;2022-09-09T11:23:19;1.77;;;0.90;;
10116;SDS011;5098;48.792;9.012;2022-09-09T11:25:48;1.87;;;1.00;;
10116;SDS011;5098;48.792;9.012;2022-09-09T11:31:16;3.60;;;1.10;;
10116;SDS011;5098;48.792;9.012;2022-09-09T11:36:03;3.20;;;1.00;;
10116;SDS011;5098;48.792;9.012;2022-09-09T11:41:10;1.50;;;0.80;;
10116;SDS011;5098;48.792;9.012;2022-09-09T11:43:40;1.63;;;1.00;;
10116;SDS011;5098;48.792;9.012;2022-09-09T11:46:07;1.40;;;0.80;;
10116;SDS011;5098;48.792;9.012;2022-09-09T11:48:35;1.50;;;1.00;;
10116;SDS011;5098;48.792;9.012;2022-09-09T11:51:06;1.50;;;0.90;;
10116;SDS011;5098;48.792;9.012;2022-09-09T11:53:33;3.53;;;0.97;;
10116;SDS011;5098;48.792;9.012;2022-09-09T11:56:10;2.00;;;1.00;;
10116;SDS011;5098;48.792;9.012;2022-09-09T11:58:42;1.40;;;0.90;;
10116;SDS011;5098;48.792;9.012;2022-09-09T12:01:14;3.33;;;1.20;;
10116;SDS011;5098;48.792;9.012;2022-09-09T12:03:50;3.70;;;0.70;;
10116;SDS011;5098;48.792;9.012;2022-09-09T12:08:45;1.80;;;1.00;;
10116;SDS011;5098;48.792;9.012;2022-09-09T12:11:12;2.60;;;1.00;;
10116;SDS011;5098;48.792;9.012;2022-09-09T12:13:56;1.33;;;0.90;;
10116;SDS011;5098;48.792;9.012;2022-09-09T12:16:35;1.47;;;0.90;;
10116;SDS011;5098;48.792;9.012;2022-09-09T12:19:21;1.20;;;0.80;;
10116;SDS011;5098;48.792;9.012;2022-09-09T12:21:54;1.80;;;1.00;;
10116;SDS011;5098;48.792;9.012;2022-09-09T12:24:33;3.83;;;1.27;;
10116;SDS011;5098;48.792;9.012;2022-09-09T12:29:38;1.47;;;0.80;;
10116;SDS011;5098;48.792;9.012;2022-09-09T12:32:11;2.57;;;1.10;;
10116;SDS011;5098;48.792;9.012;2022-09-09T12:34:50;2.13;;;0.93;;
10116;SDS011;5098;48.792;9.012;2022-09-09T12:37:23;2.13;;;1.10;;
10116;SDS011;5098;48.792;9.012;2022-09-09T12:39:52;2.40;;;0.83;;
10116;SDS011;5098;48.792;9.012;2022-09-09T12:42:23;1.10;;;0.60;;
10116;SDS011;5098;48.792;9.012;2022-09-09T12:44:53;2.17;;;0.93;;
10116;SDS011;5098;48.792;9.012;2022-09-09T12:47:20;1.90;;;0.80;;
10116;SDS011;5098;48.792;9.012;2022-09-09T12:49:47;3.33;;;0.90;;
10116;SDS011;5098;48.792;9.012;2022-09-09T12:52:17;2.03;;;1.00;;
10116;SDS011;5098;48.792;9.012;2022-09-09T12:54:45;1.20;;;0.70;;
10116;SDS011;5098;48.792;9.012;2022-09-09T12:57:17;2.63;;;0.90;;
10116;SDS011;5098;48.792;9.012;2022-09-09T12:59:43;1.73;;;0.80;;
10116;SDS011;5098;48.792;9.012;2022-09-09T13:02:22;2.63;;;1.07;;
10116;SDS011;5098;48.792;9.012;2022-09-09T13:04:50;2.07;;;0.80;;
10116;SDS011;5098;48.792;9.012;2022-09-09T13:07:18;2.93;;;0.80;;
10116;SDS011;5098;48.792;9.012;2022-09-09T13:09:45;1.93;;;0.80;;
10116;SDS011;5098;48.792;9.012;2022-09-09T13:12:21;3.63;;;1.10;;
10116;SDS011;5098;48.792;9.012;2022-09-09T13:14:53;1.73;;;0.80;;
10116;SDS011;5098;48.792;9.012;2022-09-09T13:17:21;1.20;;;0.67;;
10116;SDS011;5098;48.792;9.012;2022-09-09T13:19:48;2.50;;;1.30;;
10116;SDS011;5098;48.792;9.012;2022-09-09T13:22:20;3.63;;;0.90;;
10116;SDS011;5098;48.792;9.012;2022-09-09T13:24:46;4.03;;;1.30;;
10116;SDS011;5098;48.792;9.012;2022-09-09T13:27:29;2.40;;;1.00;;
10116;SDS011;5098;48.792;9.012;2022-09-09T13:29:55;2.87;;;1.10;;
10116;SDS011;5098;48.792;9.012;2022-09-09T13:32:22;4.40;;;0.97;;
10116;SDS011;5098;48.792;9.012;2022-09-09T13:34:52;1.87;;;1.00;;
10116;SDS011;5098;48.792;9.012;2022-09-09T13:37:23;2.50;;;1.20;;
10116;SDS011;5098;48.792;9.012;2022-09-09T13:39:53;2.30;;;1.07;;
10116;SDS011;5098;48.792;9.012;2022-09-09T13:42:21;4.00;;;0.97;;
10116;SDS011;5098;48.792;9.012;2022-09-09T13:44:50;4.40;;;0.90;;
10116;SDS011;5098;48.792;9.012;2022-09-09T13:47:20;1.53;;;0.80;;
10116;SDS011;5098;48.792;9.012;2022-09-09T13:49:48;1.80;;;1.00;;
10116;SDS011;5098;48.792;9.012;2022-09-09T13:52:15;3.73;;;0.70;;
10116;SDS011;5098;48.792;9.012;2022-09-09T13:54:43;2.33;;;1.10;;
10116;SDS011;5098;48.792;9.012;2022-09-09T13:57:19;2.20;;;0.90;;
10116;SDS011;5098;48.792;9.012;2022-09-09T13:59:46;1.97;;;1.00;;
10116;SDS011;5098;48.792;9.012;2022-09-09T14:02:13;1.87;;;1.00;;
10116;SDS011;5098;48.792;9.012;2022-09-09T14:04:39;1.87;;;0.80;;
10116;SDS011;5098;48.792;9.012;2022-09-09T14:07:08;2.77;;;0.73;;
10116;SDS011;5098;48.792;9.012;2022-09-09T14:09:35;1.70;;;1.00;;
10116;SDS011;5098;48.792;9.012;2022-09-09T14:12:02;3.10;;;0.90;;
10116;SDS011;5098;48.792;9.012;2022-09-09T14:14:28;1.47;;;0.67;;
10116;SDS011;5098;48.792;9.012;2022-09-09T14:16:54;1.47;;;0.63;;
10116;SDS011;5098;48.792;9.012;2022-09-09T14:19:20;2.50;;;1.13;;
10116;SDS011;5098;48.792;9.012;2022-09-09T14:21:46;2.43;;;0.90;;
10116;SDS011;5098;48.792;9.012;2022-09-09T14:24:12;3.20;;;1.00;;
10116;SDS011;5098;48.792;9.012;2022-09-09T14:26:39;2.43;;;0.70;;
10116;SDS011;5098;48.792;9.012;2022-09-09T14:29:05;2.70;;;1.00;;
10116;SDS011;5098;48.792;9.012;2022-09-09T14:31:32;1.23;;;0.77;;
10116;SDS011;5098;48.792;9.012;2022-09-09T14:33:58;2.00;;;0.90;;
10116;SDS011;5098;48.792;9.012;2022-09-09T14:36:24;1.33;;;0.80;;
10116;SDS011;5098;48.792;9.012;2022-09-09T14:38:50;2.73;;;1.00;;
10116;SDS011;5098;48.792;9.012;2022-09-09T14:41:18;1.40;;;0.90;;
10116;SDS011;5098;48.792;9.012;2022-09-09T14:43:47;1.33;;;0.70;;
10116;SDS011;5098;48.792;9.012;2022-09-09T14:46:14;2.50;;;0.70;;
10116;SDS011;5098;48.792;9.012;2022-09-09T14:48:41;4.70;;;1.50;;
10116;SDS011;5098;48.792;9.012;2022-09-09T14:51:09;1.60;;;0.63;;
10116;SDS011;5098;48.792;9.012;2022-09-09T14:53:36;2.13;;;0.83;;
10116;SDS011;5098;48.792;9.012;2022-09-09T14:56:03;2.30;;;0.90;;
10116;SDS011;5098;48.792;9.012;2022-09-09T14:58:32;1.63;;;0.90;;
10116;SDS011;5098;48.792;9.012;2022-09-09T15:01:02;3.10;;;1.00;;
10116;SDS011;5098;48.792;9.012;2022-09-09T15:03:29;1.63;;;0.90;;
10116;SDS011;5098;48.792;9.012;2022-09-09T15:05:55;2.33;;;0.90;;
10116;SDS011;5098;48.792;9.012;2022-09-09T15:08:23;1.83;;;1.20;;
10116;SDS011;5098;48.792;9.012;2022-09-09T15:10:49;1.80;;;0.80;;
10116;SDS011;5098;48.792;9.012;2022-09-09T15:13:15;3.03;;;1.10;;
10116;SDS011;5098;48.792;9.012;2022-09-09T15:15:44;1.37;;;0.97;;
10116;SDS011;5098;48.792;9.012;2022-09-09T15:18:10;4.37;;;1.07;;
10116;SDS011;5098;48.792;9.012;2022-09-09T15:20:37;2.60;;;1.17;;
10116;SDS011;5098;48.792;9.012;2022-09-09T15:23:03;4.37;;;1.27;;
10116;SDS011;5098;48.792;9.012;2022-09-09T15:25:30;2.43;;;0.83;;
10116;SDS011;5098;48.792;9.012;2022-09-09T15:27:57;3.37;;;0.93;;
10116;SDS011;5098;48.792;9.012;2022-09-09T15:30:23;1.73;;;1.20;;
10116;SDS011;5098;48.792;9.012;2022-09-09T15:32:49;3.00;;;1.30;;
10116;SDS011;5098;48.792;9.012;2022-09-09T15:35:17;3.10;;;1.10;;
10116;SDS011;5098;48.792;9.012;2022-09-09T15:37:43;4.27;;;1.20;;
10116;SDS011;5098;48.792;9.012;2022-09-09T15:40:10;1.77;;;0.90;;
10116;SDS011;5098;48.792;9.012;2022-09-09T15:42:36;3.07;;;1.27;;
10116;SDS011;5098;48.792;9.012;2022-09-09T15:45:03;7.03;;;1.30;;
10116;SDS011;5098;48.792;9.012;2022-09-09T15:47:30;4.10;;;1.13;;
10116;SDS011;5098;48.792;9.012;2022-09-09T15:49:58;2.10;;;0.87;;
10116;SDS011;5098;48.792;9.012;2022-09-09T15:52:24;3.30;;;1.10;;
10116;SDS011;5098;48.792;9.012;2022-09-09T15:54:50;2.27;;;1.00;;
10116;SDS011;5098;48.792;9.012;2022-09-09T15:57:16;2.20;;;1.00;;
10116;SDS011;5098;48.792;9.012;2022-09-09T15:59:42;1.80;;;1.00;;
10116;SDS011;5098;48.792;9.012;2022-09-09T16:02:10;3.13;;;1.60;;
10116;SDS011;5098;48.792;9.012;2022-09-09T16:04:36;2.73;;;1.47;;
10116;SDS011;5098;48.792;9.012;2022-09-09T16:07:03;3.10;;;1.30;;
10116;SDS011;5098;48.792;9.012;2022-09-09T16:09:30;1.77;;;0.80;;
10116;SDS011;5098;48.792;9.012;2022-09-09T16:11:57;1.80;;;1.17;;
10116;SDS011;5098;48.792;9.012;2022-09-09T16:14:23;3.37;;;1.13;;
10116;SDS011;5098;48.792;9.012;2022-09-09T16:16:50;3.33;;;1.20;;
10116;SDS011;5098;48.792;9.012;2022-09-09T16:19:17;1.90;;;0.70;;
10116;SDS011;5098;48.792;9.012;2022-09-09T16:21:47;2.30;;;0.80;;
10116;SDS011;5098;48.792;9.012;2022-09-09T16:24:14;4.77;;;1.00;;
10116;SDS011;5098;48.792;9.012;2022-09-09T16:26:45;2.87;;;1.03;;
10116;SDS011;5098;48.792;9.012;2022-09-09T16:29:11;1.40;;;0.70;;
10116;SDS011;5098;48.792;9.012;2022-09-09T16:31:38;1.93;;;0.60;;
10116;SDS011;5098;48.792;9.012;2022-09-09T16:34:05;1.10;;;0.60;;
10116;SDS011;5098;48.792;9.012;2022-09-09T16:36:32;1.10;;;0.60;;
10116;SDS011;5098;48.792;9.012;2022-09-09T16:39:05;1.30;;;0.80;;
10116;SDS011;5098;48.792;9.012;2022-09-09T16:41:32;3.03;;;0.80;;
10116;SDS011;5098;48.792;9.012;2022-09-09T16:43:59;9.80;;;7.20;;
10116;SDS011;5098;48.792;9.012;2022-09-09T16:46:27;22.73;;;16.47;;